createdAt,value
2019-03-31T00:01:07.505Z,98690.99
2019-03-31T00:02:01.305Z,98687.37
2019-03-31T00:03:03.859Z,98688.66
2019-03-31T00:04:05.691Z,98692.32
2019-03-31T00:05:09.247Z,98687.02
2019-03-31T00:06:11.456Z,98688.50
2019-03-31T00:07:15.719Z,98682.86
2019-03-31T00:08:17.946Z,98689.86
2019-03-31T00:09:19.871Z,98688.02
2019-03-31T00:10:21.987Z,98690.34
2019-03-31T00:11:24.207Z,98683.71
2019-03-31T00:12:26.170Z,98683.88
2019-03-31T00:13:28.467Z,98687.37
2019-03-31T00:14:30.597Z,98687.89
2019-03-31T00:15:32.896Z,98687.70
2019-03-31T00:16:37.024Z,98684.72
2019-03-31T00:17:40.383Z,98678.23
2019-03-31T00:18:42.314Z,98679.08
2019-03-31T00:19:44.241Z,98679.89
2019-03-31T00:20:47.057Z,98677.55
2019-03-31T00:21:50.647Z,98677.75
2019-03-31T00:22:52.666Z,98677.76
2019-03-31T00:23:55.173Z,98676.91
2019-03-31T00:24:56.859Z,98678.92
2019-03-31T00:25:59.034Z,98683.59
2019-03-31T00:27:01.371Z,98672.97
2019-03-31T00:28:03.608Z,98679.61
2019-03-31T00:29:06.276Z,98671.80
2019-03-31T00:30:08.600Z,98678.28
2019-03-31T00:31:21.450Z,98680.09
2019-03-31T00:32:14.714Z,98674.78
2019-03-31T00:33:16.631Z,98672.64
2019-03-31T00:34:18.689Z,98668.98
2019-03-31T00:35:21.087Z,98673.62
2019-03-31T00:36:23.154Z,98666.66
2019-03-31T00:37:25.360Z,98669.99
2019-03-31T00:38:27.458Z,98665.17
2019-03-31T00:39:29.356Z,98661.55
2019-03-31T00:40:31.650Z,98662.52
2019-03-31T00:41:34.061Z,98663.84
2019-03-31T00:42:36.186Z,98659.86
2019-03-31T00:43:38.373Z,98662.55
2019-03-31T00:44:40.462Z,98662.71
2019-03-31T00:45:42.532Z,98661.39
2019-03-31T00:46:44.906Z,98658.89
2019-03-31T00:47:47.288Z,98662.52
2019-03-31T00:48:48.979Z,98656.72
2019-03-31T00:49:51.090Z,98657.20
2019-03-31T00:50:53.382Z,98652.74
2019-03-31T00:51:55.519Z,98655.40
2019-03-31T00:52:57.783Z,98654.59
2019-03-31T00:53:59.797Z,98649.09
2019-03-31T00:55:03.471Z,98656.08
2019-03-31T00:56:05.605Z,98652.42
2019-03-31T00:57:07.999Z,98650.61
2019-03-31T00:58:10.180Z,98650.94
2019-03-31T00:59:12.693Z,98651.58
2019-03-31T01:00:35.961Z,98645.63
2019-03-31T01:01:41.957Z,98651.61
2019-03-31T01:02:44.505Z,98644.62
2019-03-31T01:03:46.958Z,98648.92
2019-03-31T01:04:49.471Z,98646.95
2019-03-31T01:05:51.579Z,98640.64
2019-03-31T01:06:53.742Z,98641.64
2019-03-31T01:07:56.168Z,98642.48
2019-03-31T01:09:00.298Z,98643.01
2019-03-31T01:10:03.411Z,98642.00
2019-03-31T01:11:13.464Z,98637.70
2019-03-31T01:12:16.489Z,98639.67
2019-03-31T01:13:18.935Z,98637.70
2019-03-31T01:14:21.923Z,98631.91
2019-03-31T01:15:25.898Z,98633.04
2019-03-31T01:16:29.512Z,98636.05
2019-03-31T01:17:31.996Z,98627.25
2019-03-31T01:18:34.547Z,98635.21
2019-03-31T01:19:36.868Z,98625.08
2019-03-31T01:20:39.134Z,98623.27
2019-03-31T01:21:40.935Z,98628.41
2019-03-31T01:22:43.066Z,98624.75
2019-03-31T01:23:45.862Z,98622.78
2019-03-31T01:24:47.548Z,98619.45
2019-03-31T01:25:49.999Z,98615.66
2019-03-31T01:26:53.526Z,98620.78
2019-03-31T01:27:55.636Z,98618.48
2019-03-31T01:28:58.802Z,98613.50
2019-03-31T01:30:00.926Z,98616.99
2019-03-31T01:31:03.858Z,98613.81
2019-03-31T01:32:06.128Z,98617.51
2019-03-31T01:33:08.794Z,98612.69
2019-03-31T01:34:13.022Z,98623.14
2019-03-31T01:35:15.812Z,98614.53
2019-03-31T01:36:18.164Z,98618.12
2019-03-31T01:37:21.186Z,98623.30
2019-03-31T01:38:23.536Z,98612.85
2019-03-31T01:39:26.438Z,98612.49
2019-03-31T01:40:28.480Z,98612.17
2019-03-31T01:41:31.060Z,98611.33
2019-03-31T01:42:33.249Z,98613.02
2019-03-31T01:43:35.775Z,98611.69
2019-03-31T01:44:38.181Z,98611.84
2019-03-31T01:45:40.599Z,98609.71
2019-03-31T01:46:43.013Z,98611.52
2019-03-31T01:47:45.342Z,98608.52
2019-03-31T01:48:47.403Z,98602.72
2019-03-31T01:49:49.726Z,98607.19
2019-03-31T01:50:51.953Z,98599.39
2019-03-31T01:51:54.579Z,98600.91
2019-03-31T01:52:56.705Z,98598.91
2019-03-31T01:53:58.985Z,98595.77
2019-03-31T01:55:01.027Z,98596.25
2019-03-31T01:56:03.396Z,98600.88
2019-03-31T01:57:06.833Z,98593.27
2019-03-31T01:58:08.726Z,98597.25
2019-03-31T01:59:10.899Z,98592.43
2019-03-31T02:00:21.187Z,98593.11
2019-03-31T02:01:23.381Z,98594.24
2019-03-31T02:02:27.220Z,98592.75
2019-03-31T02:03:29.366Z,98596.93
2019-03-31T02:04:31.449Z,98584.47
2019-03-31T02:05:33.969Z,98590.30
2019-03-31T02:06:36.178Z,98587.45
2019-03-31T02:07:38.416Z,98589.62
2019-03-31T02:08:41.556Z,98588.97
2019-03-31T02:09:44.873Z,98592.59
2019-03-31T02:10:47.005Z,98590.94
2019-03-31T02:11:49.037Z,98583.83
2019-03-31T02:12:51.008Z,98586.64
2019-03-31T02:13:53.228Z,98584.51
2019-03-31T02:14:55.431Z,98580.33
2019-03-31T02:15:57.809Z,98583.66
2019-03-31T02:16:59.978Z,98585.48
2019-03-31T02:18:02.262Z,98575.34
2019-03-31T02:19:04.104Z,98582.98
2019-03-31T02:20:08.018Z,98586.32
2019-03-31T02:21:09.846Z,98581.02
2019-03-31T02:22:11.676Z,98582.34
2019-03-31T02:23:13.984Z,98577.68
2019-03-31T02:24:17.255Z,98580.66
2019-03-31T02:25:19.778Z,98575.87
2019-03-31T02:26:21.931Z,98579.01
2019-03-31T02:27:24.422Z,98576.71
2019-03-31T02:28:26.172Z,98577.52
2019-03-31T02:29:28.302Z,98576.67
2019-03-31T02:30:30.574Z,98575.06
2019-03-31T02:31:32.410Z,98575.39
2019-03-31T02:32:34.653Z,98572.41
2019-03-31T02:33:36.328Z,98575.39
2019-03-31T02:34:38.287Z,98577.20
2019-03-31T02:35:40.706Z,98572.89
2019-03-31T02:36:42.378Z,98575.06
2019-03-31T02:37:44.380Z,98576.03
2019-03-31T02:38:46.814Z,98579.53
2019-03-31T02:39:48.485Z,98581.70
2019-03-31T02:40:50.791Z,98579.36
2019-03-31T02:41:52.984Z,98577.03
2019-03-31T02:42:54.823Z,98583.02
2019-03-31T02:43:57.126Z,98584.99
2019-03-31T02:44:59.361Z,98580.20
2019-03-31T02:46:01.422Z,98581.53
2019-03-31T02:47:03.791Z,98582.70
2019-03-31T02:48:06.019Z,98581.05
2019-03-31T02:49:08.092Z,98587.00
2019-03-31T02:50:24.855Z,98586.36
2019-03-31T02:51:27.119Z,98585.19
2019-03-31T02:52:29.508Z,98579.88
2019-03-31T02:53:31.759Z,98584.87
2019-03-31T02:54:33.924Z,98582.38
2019-03-31T02:55:37.123Z,98586.03
2019-03-31T02:56:40.324Z,98581.05
2019-03-31T02:57:42.507Z,98577.91
2019-03-31T02:58:45.540Z,98581.73
2019-03-31T02:59:49.440Z,98576.91
2019-03-31T03:00:52.506Z,98571.44
2019-03-31T03:01:56.820Z,98577.55
2019-03-31T03:02:59.547Z,98567.47
2019-03-31T03:04:02.356Z,98574.26
2019-03-31T03:05:18.782Z,98576.06
2019-03-31T03:06:10.939Z,98572.25
2019-03-31T03:07:15.328Z,98573.61
2019-03-31T03:08:17.893Z,98571.44
2019-03-31T03:09:22.220Z,98572.61
2019-03-31T03:10:26.234Z,98576.75
2019-03-31T03:11:31.118Z,98566.14
2019-03-31T03:12:34.476Z,98571.44
2019-03-31T03:13:39.442Z,98572.93
2019-03-31T03:14:42.338Z,98571.80
2019-03-31T03:16:08.364Z,98569.47
2019-03-31T03:17:10.346Z,98575.42
2019-03-31T03:18:12.475Z,98575.27
2019-03-31T03:19:14.933Z,98573.28
2019-03-31T03:20:16.966Z,98572.12
2019-03-31T03:21:23.426Z,98575.58
2019-03-31T03:22:23.151Z,98574.45
2019-03-31T03:23:25.289Z,98576.75
2019-03-31T03:24:27.966Z,98572.12
2019-03-31T03:25:29.634Z,98574.77
2019-03-31T03:26:31.827Z,98576.58
2019-03-31T03:27:33.603Z,98576.27
2019-03-31T03:28:35.502Z,98572.61
2019-03-31T03:29:37.979Z,98573.94
2019-03-31T03:30:40.329Z,98569.79
2019-03-31T03:31:42.536Z,98570.12
2019-03-31T03:33:12.069Z,98572.92
2019-03-31T03:33:48.744Z,98573.61
2019-03-31T03:34:50.898Z,98572.61
2019-03-31T03:35:53.158Z,98572.93
2019-03-31T03:36:55.008Z,98574.41
2019-03-31T03:37:59.504Z,98574.41
2019-03-31T03:39:01.666Z,98568.11
2019-03-31T03:40:06.141Z,98572.44
2019-03-31T03:41:08.413Z,98564.48
2019-03-31T03:42:10.641Z,98562.16
2019-03-31T03:43:12.303Z,98561.48
2019-03-31T03:44:14.489Z,98558.83
2019-03-31T03:45:16.860Z,98562.48
2019-03-31T03:46:18.547Z,98548.73
2019-03-31T03:47:20.878Z,98553.88
2019-03-31T03:48:22.686Z,98553.69
2019-03-31T03:49:24.764Z,98555.37
2019-03-31T03:50:26.842Z,98556.02
2019-03-31T03:51:28.526Z,98553.36
2019-03-31T03:52:30.701Z,98563.97
2019-03-31T03:53:33.251Z,98561.84
2019-03-31T03:54:35.682Z,98563.64
2019-03-31T03:55:38.046Z,98566.78
2019-03-31T03:56:40.005Z,98562.00
2019-03-31T03:57:42.133Z,98562.00
2019-03-31T03:58:44.747Z,98560.83
2019-03-31T03:59:46.813Z,98563.00
2019-03-31T04:00:49.107Z,98563.81
2019-03-31T04:01:51.259Z,98568.78
2019-03-31T04:02:54.905Z,98569.63
2019-03-31T04:03:56.601Z,98571.44
2019-03-31T04:04:58.760Z,98572.77
2019-03-31T04:06:00.714Z,98571.11
2019-03-31T04:07:02.965Z,98571.60
2019-03-31T04:08:05.184Z,98569.14
2019-03-31T04:09:07.460Z,98565.00
2019-03-31T04:10:44.357Z,98571.76
2019-03-31T04:11:46.601Z,98573.44
2019-03-31T04:12:48.480Z,98573.44
2019-03-31T04:13:50.977Z,98565.81
2019-03-31T04:14:53.235Z,98573.44
2019-03-31T04:15:56.182Z,98570.95
2019-03-31T04:16:58.765Z,98571.47
2019-03-31T04:18:00.913Z,98571.62
2019-03-31T04:19:02.911Z,98572.44
2019-03-31T04:20:05.306Z,98573.27
2019-03-31T04:21:07.914Z,98567.65
2019-03-31T04:22:09.623Z,98571.95
2019-03-31T04:23:12.738Z,98573.44
2019-03-31T04:24:15.016Z,98573.76
2019-03-31T04:25:16.927Z,98572.95
2019-03-31T04:26:19.037Z,98576.09
2019-03-31T04:27:20.689Z,98577.41
2019-03-31T04:28:22.446Z,98577.57
2019-03-31T04:29:24.662Z,98585.04
2019-03-31T04:30:27.116Z,98581.73
2019-03-31T04:31:29.315Z,98576.44
2019-03-31T04:32:31.636Z,98573.43
2019-03-31T04:33:49.650Z,98576.44
2019-03-31T04:34:37.645Z,98574.92
2019-03-31T04:35:39.769Z,98570.78
2019-03-31T04:36:41.972Z,98571.30
2019-03-31T04:37:44.082Z,98571.97
2019-03-31T04:38:46.288Z,98576.76
2019-03-31T04:39:48.385Z,98571.30
2019-03-31T04:40:52.535Z,98574.43
2019-03-31T04:41:54.686Z,98568.80
2019-03-31T04:42:56.723Z,98575.43
2019-03-31T04:43:58.833Z,98577.76
2019-03-31T04:45:00.993Z,98575.43
2019-03-31T04:46:03.372Z,98575.11
2019-03-31T04:47:05.402Z,98577.76
2019-03-31T04:48:07.060Z,98577.11
2019-03-31T04:49:09.242Z,98581.09
2019-03-31T04:50:11.843Z,98575.42
2019-03-31T04:51:14.454Z,98583.73
2019-03-31T04:52:16.092Z,98581.24
2019-03-31T04:53:18.656Z,98577.59
2019-03-31T04:54:21.068Z,98580.24
2019-03-31T04:55:23.255Z,98579.76
2019-03-31T04:56:25.270Z,98576.59
2019-03-31T04:57:27.415Z,98576.11
2019-03-31T04:58:29.804Z,98569.80
2019-03-31T04:59:32.034Z,98578.24
2019-03-31T05:00:36.220Z,98571.97
2019-03-31T05:01:38.300Z,98570.13
2019-03-31T05:02:40.626Z,98571.78
2019-03-31T05:03:42.644Z,98570.13
2019-03-31T05:04:44.787Z,98567.48
2019-03-31T05:05:48.127Z,98566.80
2019-03-31T05:06:49.801Z,98575.92
2019-03-31T05:07:52.042Z,98575.11
2019-03-31T05:08:54.036Z,98574.11
2019-03-31T05:09:55.742Z,98571.78
2019-03-31T05:10:58.125Z,98574.44
2019-03-31T05:12:00.113Z,98579.25
2019-03-31T05:13:02.203Z,98580.39
2019-03-31T05:14:04.527Z,98576.41
2019-03-31T05:15:06.855Z,98576.41
2019-03-31T05:16:08.695Z,98575.08
2019-03-31T05:17:10.777Z,98580.74
2019-03-31T05:18:13.200Z,98581.55
2019-03-31T05:19:16.362Z,98583.39
2019-03-31T05:20:18.517Z,98589.34
2019-03-31T05:21:20.870Z,98579.74
2019-03-31T05:22:22.852Z,98584.05
2019-03-31T05:23:25.525Z,98583.88
2019-03-31T05:24:27.310Z,98582.23
2019-03-31T05:25:29.322Z,98584.70
2019-03-31T05:26:31.441Z,98584.37
2019-03-31T05:27:33.177Z,98580.72
2019-03-31T05:28:35.030Z,98582.88
2019-03-31T05:29:37.266Z,98583.37
2019-03-31T05:30:39.409Z,98588.02
2019-03-31T05:31:41.092Z,98588.51
2019-03-31T05:32:44.187Z,98588.02
2019-03-31T05:33:46.413Z,98583.53
2019-03-31T05:34:48.703Z,98582.05
2019-03-31T05:35:51.969Z,98580.39
2019-03-31T05:36:54.061Z,98583.05
2019-03-31T05:37:56.319Z,98581.05
2019-03-31T05:38:58.345Z,98580.05
2019-03-31T05:40:00.499Z,98584.37
2019-03-31T05:41:02.848Z,98582.73
2019-03-31T05:42:04.791Z,98586.19
2019-03-31T05:43:06.616Z,98582.89
2019-03-31T05:44:08.678Z,98585.02
2019-03-31T05:45:10.948Z,98581.72
2019-03-31T05:46:13.033Z,98580.07
2019-03-31T05:47:15.024Z,98584.37
2019-03-31T05:48:16.796Z,98584.53
2019-03-31T05:49:18.774Z,98588.67
2019-03-31T05:50:20.867Z,98581.37
2019-03-31T05:51:22.908Z,98583.05
2019-03-31T05:52:24.932Z,98582.38
2019-03-31T05:53:26.890Z,98580.88
2019-03-31T05:54:28.995Z,98581.89
2019-03-31T05:55:31.260Z,98583.89
2019-03-31T05:56:33.386Z,98591.66
2019-03-31T05:57:35.371Z,98581.41
2019-03-31T05:58:37.236Z,98580.73
2019-03-31T05:59:39.262Z,98589.33
2019-03-31T06:00:43.097Z,98589.66
2019-03-31T06:01:45.450Z,98589.01
2019-03-31T06:02:47.683Z,98585.35
2019-03-31T06:03:49.390Z,98588.97
2019-03-31T06:04:51.773Z,98586.64
2019-03-31T06:05:54.029Z,98592.95
2019-03-31T06:06:57.862Z,98591.79
2019-03-31T06:08:01.406Z,98594.92
2019-03-31T06:09:05.296Z,98594.24
2019-03-31T06:10:07.335Z,98592.95
2019-03-31T06:11:09.523Z,98591.63
2019-03-31T06:12:11.732Z,98590.27
2019-03-31T06:13:13.725Z,98592.75
2019-03-31T06:14:15.868Z,98597.58
2019-03-31T06:15:18.245Z,98591.59
2019-03-31T06:16:20.124Z,98598.86
2019-03-31T06:17:22.123Z,98591.06
2019-03-31T06:18:23.948Z,98588.41
2019-03-31T06:19:26.034Z,98592.70
2019-03-31T06:20:28.356Z,98587.92
2019-03-31T06:21:30.419Z,98592.91
2019-03-31T06:22:32.567Z,98589.41
2019-03-31T06:23:35.135Z,98592.75
2019-03-31T06:24:37.091Z,98597.38
2019-03-31T06:25:39.367Z,98604.00
2019-03-31T06:26:42.714Z,98600.67
2019-03-31T06:27:47.013Z,98595.88
2019-03-31T06:28:49.180Z,98601.34
2019-03-31T06:29:51.285Z,98603.48
2019-03-31T06:30:53.051Z,98604.48
2019-03-31T06:31:55.062Z,98604.48
2019-03-31T06:32:57.357Z,98608.47
2019-03-31T06:33:59.327Z,98607.30
2019-03-31T06:35:01.709Z,98606.18
2019-03-31T06:36:03.988Z,98604.97
2019-03-31T06:37:06.348Z,98611.80
2019-03-31T06:38:09.015Z,98607.30
2019-03-31T06:39:10.742Z,98600.83
2019-03-31T06:40:13.065Z,98601.47
2019-03-31T06:41:15.246Z,98601.95
2019-03-31T06:42:17.287Z,98601.95
2019-03-31T06:43:18.956Z,98599.13
2019-03-31T06:44:22.253Z,98603.44
2019-03-31T06:45:24.411Z,98604.11
2019-03-31T06:46:26.394Z,98601.78
2019-03-31T06:47:28.452Z,98608.74
2019-03-31T06:48:30.860Z,98610.42
2019-03-31T06:49:33.206Z,98604.76
2019-03-31T06:50:35.830Z,98608.94
2019-03-31T06:51:38.068Z,98606.41
2019-03-31T06:52:40.017Z,98611.23
2019-03-31T06:53:41.995Z,98612.71
2019-03-31T06:54:43.942Z,98608.41
2019-03-31T06:55:45.947Z,98612.39
2019-03-31T06:56:48.074Z,98617.02
2019-03-31T06:57:51.118Z,98613.89
2019-03-31T06:58:53.114Z,98615.22
2019-03-31T06:59:55.208Z,98612.09
2019-03-31T07:00:57.396Z,98618.72
2019-03-31T07:02:02.848Z,98615.73
2019-03-31T07:03:04.059Z,98615.73
2019-03-31T07:04:07.686Z,98611.08
2019-03-31T07:05:10.213Z,98612.72
2019-03-31T07:06:12.764Z,98611.28
2019-03-31T07:07:15.123Z,98615.73
2019-03-31T07:08:17.514Z,98610.07
2019-03-31T07:09:19.679Z,98616.06
2019-03-31T07:10:22.116Z,98618.19
2019-03-31T07:11:24.120Z,98616.02
2019-03-31T07:12:26.323Z,98614.68
2019-03-31T07:13:28.334Z,98618.67
2019-03-31T07:14:30.363Z,98618.34
2019-03-31T07:15:32.449Z,98618.03
2019-03-31T07:16:34.675Z,98624.98
2019-03-31T07:17:37.123Z,98622.81
2019-03-31T07:18:39.251Z,98622.33
2019-03-31T07:19:41.502Z,98619.20
2019-03-31T07:20:43.504Z,98631.34
2019-03-31T07:21:45.420Z,98631.67
2019-03-31T07:22:47.753Z,98627.52
2019-03-31T07:23:49.879Z,98633.36
2019-03-31T07:24:51.717Z,98631.84
2019-03-31T07:25:53.996Z,98632.19
2019-03-31T07:26:56.154Z,98629.53
2019-03-31T07:27:58.447Z,98636.33
2019-03-31T07:29:00.483Z,98629.50
2019-03-31T07:30:07.244Z,98630.34
2019-03-31T07:31:09.100Z,98626.67
2019-03-31T07:32:11.475Z,98630.50
2019-03-31T07:33:13.546Z,98628.66
2019-03-31T07:34:15.742Z,98629.53
2019-03-31T07:35:19.128Z,98627.48
2019-03-31T07:36:21.430Z,98628.17
2019-03-31T07:37:23.532Z,98629.65
2019-03-31T07:38:38.244Z,98625.30
2019-03-31T07:39:29.657Z,98626.03
2019-03-31T07:40:32.174Z,98617.22
2019-03-31T07:41:35.456Z,98620.69
2019-03-31T07:42:37.642Z,98619.52
2019-03-31T07:43:39.916Z,98617.55
2019-03-31T07:44:42.009Z,98618.02
2019-03-31T07:45:43.845Z,98614.14
2019-03-31T07:46:45.994Z,98617.62
2019-03-31T07:47:49.116Z,98618.09
2019-03-31T07:48:50.780Z,98623.25
2019-03-31T07:49:52.892Z,98625.42
2019-03-31T07:50:54.954Z,98629.52
2019-03-31T07:51:56.702Z,98625.53
2019-03-31T07:52:58.990Z,98624.24
2019-03-31T07:54:01.110Z,98622.09
2019-03-31T07:55:05.180Z,98615.80
2019-03-31T07:56:07.224Z,98624.02
2019-03-31T07:57:09.509Z,98623.18
2019-03-31T07:58:11.276Z,98622.16
2019-03-31T07:59:13.444Z,98619.19
2019-03-31T08:00:21.157Z,98622.13
2019-03-31T08:01:23.953Z,98623.46
2019-03-31T08:02:26.094Z,98627.08
2019-03-31T08:03:27.998Z,98624.73
2019-03-31T08:04:29.807Z,98626.45
2019-03-31T08:05:34.033Z,98627.78
2019-03-31T08:06:36.289Z,98630.69
2019-03-31T08:07:38.871Z,98631.05
2019-03-31T08:08:41.017Z,98623.70
2019-03-31T08:09:42.681Z,98628.00
2019-03-31T08:10:45.043Z,98630.13
2019-03-31T08:11:47.313Z,98633.80
2019-03-31T08:12:51.194Z,98630.66
2019-03-31T08:14:57.175Z,98626.22
2019-03-31T08:15:59.509Z,98625.97
2019-03-31T08:17:01.593Z,98629.47
2019-03-31T08:18:03.689Z,98625.95
2019-03-31T08:19:05.531Z,98627.45
2019-03-31T08:20:12.000Z,98624.71
2019-03-31T08:21:15.316Z,98624.17
2019-03-31T08:22:16.993Z,98625.41
2019-03-31T08:23:19.357Z,98631.99
2019-03-31T08:24:21.271Z,98630.63
2019-03-31T08:25:23.570Z,98627.52
2019-03-31T08:26:25.560Z,98626.33
2019-03-31T08:27:27.641Z,98628.69
2019-03-31T08:28:29.677Z,98623.90
2019-03-31T08:29:31.887Z,98623.05
2019-03-31T08:30:33.970Z,98628.74
2019-03-31T08:31:36.140Z,98626.38
2019-03-31T08:32:39.101Z,98622.52
2019-03-31T08:33:41.093Z,98629.04
2019-03-31T08:34:43.136Z,98626.02
2019-03-31T08:35:47.615Z,98624.23
2019-03-31T08:36:49.118Z,98627.92
2019-03-31T08:37:51.253Z,98629.85
2019-03-31T08:38:55.352Z,98632.19
2019-03-31T08:39:57.053Z,98630.38
2019-03-31T08:40:59.438Z,98621.85
2019-03-31T08:42:01.656Z,98628.97
2019-03-31T08:43:03.349Z,98631.80
2019-03-31T08:44:05.800Z,98628.37
2019-03-31T08:45:08.506Z,98621.73
2019-03-31T08:46:10.858Z,98624.06
2019-03-31T08:47:13.070Z,98628.91
2019-03-31T08:48:14.746Z,98624.61
2019-03-31T08:49:18.948Z,98622.95
2019-03-31T08:50:21.191Z,98627.21
2019-03-31T08:51:23.480Z,98620.23
2019-03-31T08:52:25.590Z,98626.42
2019-03-31T08:53:28.017Z,98622.81
2019-03-31T08:54:29.850Z,98621.63
2019-03-31T08:55:32.208Z,98618.75
2019-03-31T08:56:34.221Z,98619.61
2019-03-31T08:57:36.433Z,98619.03
2019-03-31T08:58:38.908Z,98620.62
2019-03-31T08:59:40.997Z,98616.70
2019-03-31T09:00:49.626Z,98618.16
2019-03-31T09:01:52.148Z,98608.66
2019-03-31T09:02:54.172Z,98617.50
2019-03-31T09:03:55.951Z,98617.03
2019-03-31T09:04:58.283Z,98616.54
2019-03-31T09:06:02.406Z,98616.58
2019-03-31T09:07:04.925Z,98618.69
2019-03-31T09:08:07.308Z,98621.75
2019-03-31T09:09:09.769Z,98617.83
2019-03-31T09:10:12.133Z,98616.84
2019-03-31T09:11:14.228Z,98617.98
2019-03-31T09:12:16.547Z,98614.00
2019-03-31T09:13:18.420Z,98608.15
2019-03-31T09:14:20.821Z,98607.89
2019-03-31T09:15:22.683Z,98617.98
2019-03-31T09:16:25.210Z,98609.25
2019-03-31T09:17:27.421Z,98614.72
2019-03-31T09:18:29.535Z,98611.16
2019-03-31T09:19:31.736Z,98620.78
2019-03-31T09:20:33.917Z,98615.75
2019-03-31T09:21:35.743Z,98608.15
2019-03-31T09:22:37.954Z,98610.73
2019-03-31T09:23:40.073Z,98608.22
2019-03-31T09:24:42.172Z,98599.45
2019-03-31T09:25:47.519Z,98605.41
2019-03-31T09:26:48.786Z,98605.61
2019-03-31T09:27:52.544Z,98602.83
2019-03-31T09:28:54.900Z,98605.75
2019-03-31T09:29:56.973Z,98602.11
2019-03-31T09:31:00.618Z,98604.80
2019-03-31T09:32:03.007Z,98600.81
2019-03-31T09:33:05.424Z,98603.16
2019-03-31T09:34:07.576Z,98604.10
2019-03-31T09:35:10.254Z,98607.45
2019-03-31T09:36:16.525Z,98602.95
2019-03-31T09:37:16.352Z,98607.28
2019-03-31T09:38:18.489Z,98603.09
2019-03-31T09:39:20.552Z,98608.38
2019-03-31T09:40:23.311Z,98605.29
2019-03-31T09:41:26.804Z,98606.05
2019-03-31T09:42:29.084Z,98608.19
2019-03-31T09:43:31.147Z,98603.62
2019-03-31T09:44:33.228Z,98597.92
2019-03-31T09:45:35.533Z,98599.11
2019-03-31T09:46:38.004Z,98602.31
2019-03-31T09:47:40.441Z,98597.69
2019-03-31T09:48:42.426Z,98601.30
2019-03-31T09:49:44.491Z,98599.66
2019-03-31T09:50:46.901Z,98601.33
2019-03-31T09:51:48.869Z,98600.35
2019-03-31T09:52:51.086Z,98596.83
2019-03-31T09:53:53.198Z,98604.34
2019-03-31T09:54:56.861Z,98602.92
2019-03-31T09:55:59.259Z,98600.17
2019-03-31T09:57:01.513Z,98601.19
2019-03-31T09:58:03.690Z,98602.08
2019-03-31T09:59:06.012Z,98603.58
2019-03-31T10:00:12.331Z,98605.40
2019-03-31T10:01:14.637Z,98603.78
2019-03-31T10:02:17.053Z,98597.69
2019-03-31T10:03:21.235Z,98599.97
2019-03-31T10:04:23.033Z,98601.42
2019-03-31T10:05:25.305Z,98595.07
2019-03-31T10:06:30.721Z,98598.78
2019-03-31T10:07:33.389Z,98598.54
2019-03-31T10:08:36.171Z,98597.63
2019-03-31T10:09:39.998Z,98593.89
2019-03-31T10:10:42.262Z,98592.00
2019-03-31T10:11:44.586Z,98591.44
2019-03-31T10:12:46.837Z,98589.92
2019-03-31T10:13:48.867Z,98590.00
2019-03-31T10:14:54.399Z,98585.75
2019-03-31T10:15:56.246Z,98587.00
2019-03-31T10:16:58.544Z,98596.33
2019-03-31T10:18:01.260Z,98584.52
2019-03-31T10:19:03.800Z,98588.06
2019-03-31T10:20:07.028Z,98581.92
2019-03-31T10:21:09.069Z,98581.70
2019-03-31T10:22:11.489Z,98579.67
2019-03-31T10:23:14.518Z,98578.47
2019-03-31T10:24:16.741Z,98576.44
2019-03-31T10:25:19.114Z,98570.75
2019-03-31T10:26:31.809Z,98575.49
2019-03-31T10:27:25.300Z,98578.69
2019-03-31T10:28:27.550Z,98574.31
2019-03-31T10:29:29.784Z,98572.55
2019-03-31T10:30:37.490Z,98564.49
2019-03-31T10:31:40.168Z,98559.74
2019-03-31T10:32:42.726Z,98565.48
2019-03-31T10:33:45.190Z,98561.16
2019-03-31T10:34:47.328Z,98563.12
2019-03-31T10:35:49.710Z,98562.67
2019-03-31T10:36:51.803Z,98558.49
2019-03-31T10:37:54.058Z,98566.57
2019-03-31T10:38:56.555Z,98556.63
2019-03-31T10:39:58.656Z,98556.42
2019-03-31T10:41:00.858Z,98552.11
2019-03-31T10:42:04.454Z,98554.95
2019-03-31T10:43:07.009Z,98560.77
2019-03-31T10:44:08.960Z,98561.52
2019-03-31T10:45:12.091Z,98559.48
2019-03-31T10:46:14.085Z,98555.22
2019-03-31T10:47:16.176Z,98556.23
2019-03-31T10:48:20.763Z,98558.64
2019-03-31T10:49:22.351Z,98556.02
2019-03-31T10:50:24.681Z,98563.30
2019-03-31T10:51:26.381Z,98561.16
2019-03-31T10:52:28.643Z,98562.58
2019-03-31T10:53:30.956Z,98563.43
2019-03-31T10:54:32.919Z,98563.30
2019-03-31T10:55:35.394Z,98561.65
2019-03-31T10:56:37.789Z,98568.76
2019-03-31T10:57:41.168Z,98566.30
2019-03-31T10:58:43.252Z,98560.14
2019-03-31T10:59:45.641Z,98567.42
2019-03-31T11:00:47.978Z,98559.57
2019-03-31T11:01:50.860Z,98560.98
2019-03-31T11:02:53.037Z,98566.31
2019-03-31T11:03:55.392Z,98571.89
2019-03-31T11:04:57.962Z,98571.20
2019-03-31T11:06:00.120Z,98559.92
2019-03-31T11:07:03.667Z,98559.34
2019-03-31T11:08:07.132Z,98559.84
2019-03-31T11:09:10.384Z,98560.80
2019-03-31T11:10:13.512Z,98563.84
2019-03-31T11:11:16.036Z,98563.77
2019-03-31T11:12:18.079Z,98562.27
2019-03-31T11:13:19.922Z,98567.34
2019-03-31T11:14:22.260Z,98571.92
2019-03-31T11:15:24.048Z,98572.13
2019-03-31T11:16:26.534Z,98566.41
2019-03-31T11:17:28.746Z,98560.55
2019-03-31T11:18:31.790Z,98561.88
2019-03-31T11:19:33.618Z,98569.47
2019-03-31T11:20:35.933Z,98567.08
2019-03-31T11:21:40.521Z,98562.86
2019-03-31T11:22:44.145Z,98566.28
2019-03-31T11:23:46.215Z,98560.06
2019-03-31T11:24:48.937Z,98566.95
2019-03-31T11:25:51.176Z,98559.92
2019-03-31T11:26:53.817Z,98566.94
2019-03-31T11:27:55.743Z,98562.86
2019-03-31T11:28:58.054Z,98565.91
2019-03-31T11:30:00.389Z,98553.09
2019-03-31T11:31:02.774Z,98558.66
2019-03-31T11:32:05.162Z,98558.55
2019-03-31T11:33:07.764Z,98554.31
2019-03-31T11:34:11.155Z,98551.83
2019-03-31T11:35:13.305Z,98555.56
2019-03-31T11:36:15.418Z,98550.95
2019-03-31T11:37:17.665Z,98553.97
2019-03-31T11:38:19.941Z,98555.05
2019-03-31T11:39:22.295Z,98555.88
2019-03-31T11:40:25.105Z,98556.23
2019-03-31T11:41:27.355Z,98559.75
2019-03-31T11:42:29.467Z,98553.08
2019-03-31T11:43:31.227Z,98548.98
2019-03-31T11:44:33.412Z,98549.95
2019-03-31T11:45:35.228Z,98550.84
2019-03-31T11:46:37.375Z,98547.94
2019-03-31T11:47:41.277Z,98534.03
2019-03-31T11:48:43.499Z,98544.75
2019-03-31T11:49:46.003Z,98544.86
2019-03-31T11:50:48.094Z,98541.23
2019-03-31T11:51:49.838Z,98542.33
2019-03-31T11:52:53.236Z,98540.16
2019-03-31T11:53:55.426Z,98543.71
2019-03-31T11:54:57.761Z,98536.84
2019-03-31T11:56:00.197Z,98542.61
2019-03-31T11:57:02.876Z,98543.31
2019-03-31T11:58:06.190Z,98544.64
2019-03-31T11:59:08.278Z,98544.10
2019-03-31T12:00:21.712Z,98536.77
2019-03-31T12:01:24.470Z,98530.48
2019-03-31T12:02:27.822Z,98539.76
2019-03-31T12:03:31.197Z,98540.81
2019-03-31T12:04:33.568Z,98527.31
2019-03-31T12:05:35.850Z,98532.81
2019-03-31T12:06:37.845Z,98536.98
2019-03-31T12:07:47.111Z,98532.98
2019-03-31T12:08:46.958Z,98530.44
2019-03-31T12:09:48.949Z,98522.19
2019-03-31T12:10:51.099Z,98524.95
2019-03-31T12:11:53.303Z,98525.88
2019-03-31T12:12:57.267Z,98529.77
2019-03-31T12:13:59.494Z,98526.03
2019-03-31T12:15:03.319Z,98520.39
2019-03-31T12:16:05.312Z,98520.59
2019-03-31T12:17:08.544Z,98521.21